createdAt,value
2023-03-26T00:00:39.602Z,0.00
2023-03-26T00:01:39.329Z,0.00
2023-03-26T00:02:39.202Z,0.00
2023-03-26T00:03:39.196Z,0.00
2023-03-26T00:04:39.164Z,0.00
2023-03-26T00:05:39.151Z,0.00
2023-03-26T00:06:39.564Z,0.00
2023-03-26T00:07:39.122Z,0.00
2023-03-26T00:08:39.155Z,0.00
2023-03-26T00:09:39.104Z,0.00
2023-03-26T00:10:39.078Z,0.00
2023-03-26T00:11:39.040Z,0.00
2023-03-26T00:12:39.037Z,0.00
2023-03-26T00:13:39.020Z,0.00
2023-03-26T00:14:39.019Z,0.00
2023-03-26T00:15:39.044Z,0.00
2023-03-26T00:16:39.067Z,0.00
2023-03-26T00:17:38.997Z,0.00
2023-03-26T00:18:38.973Z,0.00
2023-03-26T00:19:38.952Z,0.00
2023-03-26T00:20:38.976Z,0.00
2023-03-26T00:21:38.925Z,0.00
2023-03-26T00:22:38.919Z,0.00
2023-03-26T00:23:38.925Z,0.00
2023-03-26T00:24:38.891Z,0.00
2023-03-26T00:25:38.873Z,0.00
2023-03-26T00:26:38.879Z,0.00
2023-03-26T00:27:38.896Z,0.00
2023-03-26T00:28:38.878Z,0.00
2023-03-26T00:29:38.830Z,0.00
2023-03-26T00:30:38.917Z,0.00
2023-03-26T00:31:38.804Z,0.00
2023-03-26T00:32:38.862Z,0.00
2023-03-26T00:33:38.809Z,0.00
2023-03-26T00:34:38.779Z,0.00
2023-03-26T00:35:38.836Z,0.00
2023-03-26T00:36:38.817Z,0.00
2023-03-26T00:37:38.754Z,0.00
2023-03-26T00:38:38.782Z,0.00
2023-03-26T00:39:38.794Z,0.00
2023-03-26T00:40:38.729Z,0.00
2023-03-26T00:41:38.707Z,0.00
2023-03-26T00:42:38.727Z,0.00
2023-03-26T00:43:38.706Z,0.00
2023-03-26T00:44:38.684Z,0.00
2023-03-26T00:45:38.649Z,0.00
2023-03-26T00:46:38.716Z,0.00
2023-03-26T00:47:38.715Z,0.00
2023-03-26T00:48:45.144Z,0.00
2023-03-26T00:49:39.681Z,0.00
2023-03-26T00:50:38.614Z,0.00
2023-03-26T00:51:38.596Z,0.00
2023-03-26T00:52:38.572Z,0.00
2023-03-26T00:53:38.569Z,0.00
2023-03-26T00:54:38.581Z,0.00
2023-03-26T00:55:38.544Z,0.00
2023-03-26T00:56:38.585Z,0.00
2023-03-26T00:57:38.613Z,0.00
2023-03-26T00:58:38.555Z,0.00
2023-03-26T00:59:38.497Z,0.00
2023-03-26T01:00:38.512Z,0.00
2023-03-26T01:01:38.516Z,0.00
2023-03-26T01:02:38.601Z,0.00
2023-03-26T01:03:38.712Z,0.00
2023-03-26T01:04:38.627Z,0.00
2023-03-26T01:05:38.423Z,0.00
2023-03-26T01:06:38.459Z,0.00
2023-03-26T01:07:38.416Z,0.00
2023-03-26T01:08:38.430Z,0.00
2023-03-26T01:09:38.407Z,0.00
2023-03-26T01:10:38.387Z,0.00
2023-03-26T01:11:38.408Z,0.00
2023-03-26T01:12:38.391Z,0.00
2023-03-26T01:13:38.369Z,0.00
2023-03-26T01:14:38.334Z,0.00
2023-03-26T01:15:38.382Z,0.00
2023-03-26T01:16:38.320Z,0.00
2023-03-26T01:17:38.320Z,0.00
2023-03-26T01:18:38.303Z,0.00
2023-03-26T01:19:38.442Z,0.00
2023-03-26T01:20:38.272Z,0.00
2023-03-26T01:21:38.266Z,0.00
2023-03-26T01:22:38.252Z,0.00
2023-03-26T01:23:38.248Z,0.00
2023-03-26T01:24:38.225Z,0.00
2023-03-26T01:25:38.211Z,0.00
2023-03-26T01:26:38.189Z,0.00
2023-03-26T01:27:38.203Z,0.00
2023-03-26T01:28:38.167Z,0.00
2023-03-26T01:29:38.174Z,0.00
2023-03-26T01:30:38.156Z,0.00
2023-03-26T01:31:38.159Z,0.00
2023-03-26T01:32:38.263Z,0.00
2023-03-26T01:33:38.302Z,0.00
2023-03-26T01:34:41.768Z,0.00
2023-03-26T01:35:38.114Z,0.00
2023-03-26T01:36:38.103Z,0.00
2023-03-26T01:37:38.084Z,0.00
2023-03-26T01:38:38.067Z,0.00
2023-03-26T01:39:38.056Z,0.00
2023-03-26T01:40:38.104Z,0.00
2023-03-26T01:41:38.090Z,0.00
2023-03-26T01:42:38.033Z,0.00
2023-03-26T01:43:38.006Z,0.00
2023-03-26T01:44:38.014Z,0.00
2023-03-26T01:45:38.012Z,0.00
2023-03-26T01:46:38.036Z,0.00
2023-03-26T01:47:38.039Z,0.00
2023-03-26T01:48:37.993Z,0.00
2023-03-26T01:49:37.953Z,0.00
2023-03-26T01:50:37.947Z,0.00
2023-03-26T01:51:37.927Z,0.00
2023-03-26T01:52:38.059Z,0.00
2023-03-26T01:53:37.899Z,0.00
2023-03-26T01:54:37.885Z,0.00
2023-03-26T01:55:37.904Z,0.00
2023-03-26T01:56:37.874Z,0.00
2023-03-26T01:57:37.890Z,0.00
2023-03-26T01:58:37.857Z,0.00
2023-03-26T01:59:37.830Z,0.00
2023-03-26T02:00:37.820Z,0.00
2023-03-26T02:01:37.871Z,0.00
2023-03-26T02:02:38.056Z,0.00
2023-03-26T02:03:37.848Z,0.00
2023-03-26T02:04:37.790Z,0.00
2023-03-26T02:05:37.821Z,0.00
2023-03-26T02:06:37.794Z,0.00
2023-03-26T02:07:37.743Z,0.00
2023-03-26T02:08:37.725Z,0.00
2023-03-26T02:09:37.790Z,0.00
2023-03-26T02:10:37.714Z,0.00
2023-03-26T02:11:37.742Z,0.00
2023-03-26T02:12:37.696Z,0.00
2023-03-26T02:13:37.698Z,0.00
2023-03-26T02:14:37.638Z,0.00
2023-03-26T02:15:37.646Z,0.00
2023-03-26T02:16:37.767Z,0.00
2023-03-26T02:17:37.680Z,0.00
2023-03-26T02:18:37.598Z,0.00
2023-03-26T02:19:37.632Z,0.00
2023-03-26T02:20:37.577Z,0.00
2023-03-26T02:21:37.571Z,0.00
2023-03-26T02:22:37.617Z,0.00
2023-03-26T02:23:37.568Z,0.00
2023-03-26T02:24:37.577Z,0.00
2023-03-26T02:25:37.528Z,0.00
2023-03-26T02:26:37.504Z,0.00
2023-03-26T02:27:37.536Z,0.00
2023-03-26T02:28:37.517Z,0.00
2023-03-26T02:29:37.521Z,0.00
2023-03-26T02:30:37.458Z,0.00
2023-03-26T02:31:37.491Z,0.00
2023-03-26T02:32:37.456Z,0.00
2023-03-26T02:33:37.460Z,0.00
2023-03-26T02:34:37.432Z,0.00
2023-03-26T02:35:37.470Z,0.00
2023-03-26T02:36:37.521Z,0.00
2023-03-26T02:37:37.443Z,0.00
2023-03-26T02:38:37.370Z,0.00
2023-03-26T02:39:37.372Z,0.00
2023-03-26T02:40:37.405Z,0.00
2023-03-26T02:41:37.371Z,0.00
2023-03-26T02:42:37.352Z,0.00
2023-03-26T02:43:37.363Z,0.00
2023-03-26T02:44:37.362Z,0.00
2023-03-26T02:45:37.333Z,0.00
2023-03-26T02:46:37.311Z,0.00
2023-03-26T02:47:37.344Z,0.00
2023-03-26T02:48:37.535Z,0.00
2023-03-26T02:49:37.263Z,0.00
2023-03-26T02:50:37.270Z,0.00
2023-03-26T02:51:37.243Z,0.00
2023-03-26T02:52:37.225Z,0.00
2023-03-26T02:53:37.219Z,0.00
2023-03-26T02:54:37.231Z,0.00
2023-03-26T02:55:37.192Z,0.00
2023-03-26T02:56:37.592Z,0.00
2023-03-26T02:57:37.192Z,0.00
2023-03-26T02:58:37.155Z,0.00
2023-03-26T02:59:37.143Z,0.00
2023-03-26T03:00:37.131Z,0.00
2023-03-26T03:01:37.190Z,0.00
2023-03-26T03:02:37.308Z,0.00
2023-03-26T03:03:37.087Z,0.00
2023-03-26T03:04:37.082Z,0.00
2023-03-26T03:05:37.072Z,0.00
2023-03-26T03:06:37.059Z,0.00
2023-03-26T03:07:37.082Z,0.00
2023-03-26T03:08:37.060Z,0.00
2023-03-26T03:09:37.067Z,0.00
2023-03-26T03:10:37.020Z,0.00
2023-03-26T03:11:37.013Z,0.00
2023-03-26T03:12:37.015Z,0.00
2023-03-26T03:13:37.014Z,0.00
2023-03-26T03:14:36.969Z,0.00
2023-03-26T03:15:36.987Z,0.00
2023-03-26T03:16:37.042Z,0.00
2023-03-26T03:17:36.941Z,0.00
2023-03-26T03:18:36.947Z,0.00
2023-03-26T03:19:36.915Z,0.00
2023-03-26T03:20:36.899Z,0.00
2023-03-26T03:21:36.896Z,0.00
2023-03-26T03:22:36.891Z,0.00
2023-03-26T03:23:36.905Z,0.00
2023-03-26T03:24:36.875Z,0.00
2023-03-26T03:25:36.859Z,0.00
2023-03-26T03:26:36.872Z,0.00
2023-03-26T03:27:36.850Z,0.00
2023-03-26T03:28:36.883Z,0.00
2023-03-26T03:29:36.848Z,0.00
2023-03-26T03:30:36.825Z,0.00
2023-03-26T03:31:36.814Z,0.00
2023-03-26T03:32:36.809Z,0.00
2023-03-26T03:33:36.782Z,0.00
2023-03-26T03:34:36.773Z,0.00
2023-03-26T03:35:36.809Z,0.00
2023-03-26T03:36:36.737Z,0.00
2023-03-26T03:37:36.724Z,0.00
2023-03-26T03:38:36.722Z,0.00
2023-03-26T03:39:36.697Z,0.00
2023-03-26T03:40:36.730Z,0.00
2023-03-26T03:41:36.696Z,0.00
2023-03-26T03:42:36.689Z,0.00
2023-03-26T03:43:36.659Z,0.00
2023-03-26T03:44:36.639Z,0.00
2023-03-26T03:45:36.678Z,0.00
2023-03-26T03:46:36.696Z,0.00
2023-03-26T03:47:36.673Z,0.00
2023-03-26T03:48:36.678Z,0.00
2023-03-26T03:49:36.610Z,0.00
2023-03-26T03:50:36.736Z,0.00
2023-03-26T03:51:36.560Z,0.00
2023-03-26T03:52:36.554Z,0.00
2023-03-26T03:53:36.554Z,0.00
2023-03-26T03:54:36.530Z,0.00
2023-03-26T03:55:36.513Z,0.00
2023-03-26T03:56:36.545Z,0.00
2023-03-26T03:57:36.489Z,0.00
2023-03-26T03:58:36.494Z,0.00
2023-03-26T03:59:36.484Z,0.00
2023-03-26T04:00:36.455Z,0.00
2023-03-26T04:01:36.457Z,0.00
2023-03-26T04:02:36.492Z,0.00
2023-03-26T04:03:36.571Z,0.00
2023-03-26T04:04:36.476Z,0.00
2023-03-26T04:05:36.419Z,0.00
2023-03-26T04:06:36.406Z,0.00
2023-03-26T04:07:36.389Z,0.00
2023-03-26T04:08:36.363Z,0.00
2023-03-26T04:09:36.376Z,0.00
2023-03-26T04:10:36.361Z,0.00
2023-03-26T04:11:36.390Z,0.00
2023-03-26T04:12:36.310Z,0.00
2023-03-26T04:13:36.470Z,0.00
2023-03-26T04:14:36.295Z,0.00
2023-03-26T04:15:36.341Z,0.00
2023-03-26T04:16:36.317Z,0.00
2023-03-26T04:17:36.309Z,0.00
2023-03-26T04:18:36.268Z,0.00
2023-03-26T04:19:36.264Z,0.00
2023-03-26T04:20:36.235Z,0.00
2023-03-26T04:21:36.357Z,0.00
2023-03-26T04:22:36.301Z,0.00
2023-03-26T04:23:36.193Z,0.00
2023-03-26T04:24:36.196Z,0.00
2023-03-26T04:25:36.171Z,0.00
2023-03-26T04:26:36.157Z,0.00
2023-03-26T04:27:36.188Z,0.00
2023-03-26T04:28:36.153Z,0.00
2023-03-26T04:29:36.128Z,0.00
2023-03-26T04:30:36.153Z,0.00
2023-03-26T04:31:36.259Z,0.00
2023-03-26T04:32:36.168Z,0.00
2023-03-26T04:33:36.072Z,0.00
2023-03-26T04:34:36.066Z,0.00
2023-03-26T04:35:36.092Z,0.00
2023-03-26T04:36:36.098Z,0.00
2023-03-26T04:37:36.045Z,0.00
2023-03-26T04:38:36.025Z,0.00
2023-03-26T04:39:36.029Z,0.00
2023-03-26T04:40:36.006Z,0.00
2023-03-26T04:41:36.013Z,0.00
2023-03-26T04:42:35.997Z,0.00
2023-03-26T04:43:35.984Z,0.00
2023-03-26T04:44:35.956Z,0.00
2023-03-26T04:45:35.937Z,0.00
2023-03-26T04:46:35.993Z,0.00
2023-03-26T04:47:35.976Z,0.00
2023-03-26T04:48:35.899Z,0.00
2023-03-26T04:49:35.912Z,0.00
2023-03-26T04:50:35.896Z,0.00
2023-03-26T04:51:35.925Z,0.00
2023-03-26T04:52:35.873Z,0.00
2023-03-26T04:53:35.888Z,0.00
2023-03-26T04:54:35.852Z,0.00
2023-03-26T04:55:35.849Z,0.00
2023-03-26T04:56:35.936Z,4.00
2023-03-26T04:57:35.821Z,4.00
2023-03-26T04:58:35.798Z,4.00
2023-03-26T04:59:35.808Z,0.00
2023-03-26T05:00:35.774Z,4.00
2023-03-26T05:01:35.846Z,0.00
2023-03-26T05:02:35.746Z,0.00
2023-03-26T05:03:35.738Z,0.00
2023-03-26T05:04:35.774Z,4.00
2023-03-26T05:05:35.742Z,4.00
2023-03-26T05:06:35.722Z,4.00
2023-03-26T05:07:35.709Z,8.00
2023-03-26T05:08:35.684Z,8.00
2023-03-26T05:09:35.677Z,12.00
2023-03-26T05:10:35.688Z,12.00
2023-03-26T05:11:35.664Z,12.00
2023-03-26T05:12:35.626Z,16.00
2023-03-26T05:13:35.623Z,12.00
2023-03-26T05:14:35.648Z,16.00
2023-03-26T05:15:35.610Z,16.00
2023-03-26T05:16:35.620Z,20.00
2023-03-26T05:17:35.615Z,20.00
2023-03-26T05:18:35.571Z,24.00
2023-03-26T05:19:35.557Z,24.00
2023-03-26T05:20:35.543Z,32.00
2023-03-26T05:21:35.560Z,36.00
2023-03-26T05:22:37.918Z,36.00
2023-03-26T05:23:35.527Z,40.00
2023-03-26T05:24:35.494Z,44.00
2023-03-26T05:25:35.499Z,48.00
2023-03-26T05:26:35.520Z,56.00
2023-03-26T05:27:35.498Z,56.00
2023-03-26T05:28:35.452Z,56.00
2023-03-26T05:29:35.459Z,64.00
2023-03-26T05:30:35.450Z,68.00
2023-03-26T05:31:35.437Z,68.00
2023-03-26T05:32:35.533Z,68.00
2023-03-26T05:33:35.494Z,72.00
2023-03-26T05:34:35.426Z,72.00
2023-03-26T05:35:35.439Z,76.00
2023-03-26T05:36:35.390Z,80.00
2023-03-26T05:37:35.424Z,84.00
2023-03-26T05:38:35.360Z,84.00
2023-03-26T05:39:35.344Z,88.00
2023-03-26T05:40:35.356Z,92.00
2023-03-26T05:41:35.344Z,80.00
2023-03-26T05:42:35.329Z,76.00
2023-03-26T05:43:35.326Z,72.00
2023-03-26T05:44:35.367Z,72.00
2023-03-26T05:45:35.270Z,72.00
2023-03-26T05:46:35.313Z,80.00
2023-03-26T05:47:35.353Z,80.00
2023-03-26T05:48:35.263Z,84.00
2023-03-26T05:49:35.266Z,88.00
2023-03-26T05:50:35.211Z,92.00
2023-03-26T05:51:35.206Z,100.00
2023-03-26T05:52:35.210Z,100.00
2023-03-26T05:53:35.201Z,112.00
2023-03-26T05:54:35.173Z,116.00
2023-03-26T05:55:35.145Z,124.00
2023-03-26T05:56:35.205Z,128.00
2023-03-26T05:57:35.162Z,140.00
2023-03-26T05:58:35.137Z,144.00
2023-03-26T05:59:35.234Z,148.00
2023-03-26T06:00:35.109Z,152.00
2023-03-26T06:01:35.085Z,156.00
2023-03-26T06:02:35.155Z,160.00
2023-03-26T06:03:35.232Z,160.00
2023-03-26T06:04:35.191Z,160.00
2023-03-26T06:05:35.030Z,160.00
2023-03-26T06:06:35.049Z,160.00
2023-03-26T06:07:35.027Z,164.00
2023-03-26T06:08:35.024Z,172.00
2023-03-26T06:09:35.005Z,184.00
2023-03-26T06:10:35.036Z,196.00
2023-03-26T06:11:34.973Z,200.00
2023-03-26T06:12:34.974Z,204.00
2023-03-26T06:13:34.964Z,212.00
2023-03-26T06:14:34.962Z,216.00
2023-03-26T06:15:34.972Z,220.00
2023-03-26T06:16:34.976Z,224.00
2023-03-26T06:17:34.959Z,232.00
2023-03-26T06:18:35.138Z,244.00
2023-03-26T06:19:34.894Z,260.00
2023-03-26T06:20:34.869Z,276.00
2023-03-26T06:21:35.037Z,292.00
2023-03-26T06:22:34.869Z,300.00
2023-03-26T06:23:34.864Z,300.00
2023-03-26T06:24:34.859Z,304.00
2023-03-26T06:25:34.825Z,308.00
2023-03-26T06:26:34.816Z,304.00
2023-03-26T06:27:34.804Z,300.00
2023-03-26T06:28:34.788Z,304.00
2023-03-26T06:29:34.768Z,312.00
2023-03-26T06:30:34.764Z,328.00
2023-03-26T06:31:34.895Z,352.00
2023-03-26T06:32:34.770Z,380.00
2023-03-26T06:33:34.726Z,412.00
2023-03-26T06:34:34.720Z,436.00
2023-03-26T06:35:34.745Z,444.00
2023-03-26T06:36:34.682Z,460.00
2023-03-26T06:37:34.735Z,472.00
2023-03-26T06:38:34.681Z,488.00
2023-03-26T06:39:34.663Z,500.00
2023-03-26T06:40:34.631Z,508.00
2023-03-26T06:41:34.643Z,524.00
2023-03-26T06:43:07.707Z,536.00
2023-03-26T06:43:35.647Z,552.00
2023-03-26T06:44:34.607Z,564.00
2023-03-26T06:45:34.592Z,580.00
2023-03-26T06:46:34.613Z,592.00
2023-03-26T06:47:34.606Z,596.00
2023-03-26T06:48:34.574Z,592.00
2023-03-26T06:49:34.622Z,592.00
2023-03-26T06:50:34.558Z,592.00
2023-03-26T06:51:34.518Z,588.00
2023-03-26T06:52:34.529Z,596.00
2023-03-26T06:53:34.492Z,612.00
2023-03-26T06:54:34.566Z,624.00
2023-03-26T06:55:34.498Z,640.00
2023-03-26T06:56:34.512Z,648.00
2023-03-26T06:57:34.463Z,656.00
2023-03-26T06:58:34.488Z,664.00
2023-03-26T06:59:34.464Z,676.00
2023-03-26T07:00:34.421Z,684.00
2023-03-26T07:01:34.441Z,696.00
2023-03-26T07:02:34.465Z,712.00
2023-03-26T07:03:34.400Z,724.00
2023-03-26T07:04:34.446Z,736.00
2023-03-26T07:05:34.381Z,748.00
2023-03-26T07:06:34.365Z,752.00
2023-03-26T07:07:34.346Z,748.00
2023-03-26T07:08:34.358Z,736.00
2023-03-26T07:09:34.322Z,720.00
2023-03-26T07:10:34.326Z,700.00
2023-03-26T07:11:34.294Z,692.00
2023-03-26T07:12:34.329Z,684.00
2023-03-26T07:13:34.285Z,680.00
2023-03-26T07:14:34.267Z,676.00
2023-03-26T07:15:34.303Z,668.00
2023-03-26T07:16:34.301Z,652.00
2023-03-26T07:17:34.259Z,632.00
2023-03-26T07:18:34.393Z,616.00
2023-03-26T07:19:34.276Z,596.00
2023-03-26T07:20:34.423Z,580.00
2023-03-26T07:21:34.193Z,560.00
2023-03-26T07:22:34.189Z,544.00
2023-03-26T07:23:34.191Z,524.00
2023-03-26T07:24:34.158Z,508.00
2023-03-26T07:25:34.144Z,488.00
2023-03-26T07:26:34.147Z,472.00
2023-03-26T07:27:34.191Z,460.00
2023-03-26T07:28:34.122Z,448.00
2023-03-26T07:29:34.104Z,448.00
2023-03-26T07:30:34.104Z,452.00
2023-03-26T07:31:34.166Z,456.00
2023-03-26T07:32:34.118Z,464.00
2023-03-26T07:33:34.070Z,472.00
2023-03-26T07:34:34.200Z,488.00
2023-03-26T07:35:34.050Z,496.00
2023-03-26T07:36:34.037Z,508.00
2023-03-26T07:37:33.992Z,512.00
2023-03-26T07:38:34.022Z,516.00
2023-03-26T07:39:33.994Z,528.00
2023-03-26T07:40:33.999Z,532.00
2023-03-26T07:41:33.964Z,548.00
2023-03-26T07:42:34.036Z,564.00
2023-03-26T07:43:33.947Z,576.00
2023-03-26T07:44:35.651Z,584.00
2023-03-26T07:45:33.981Z,588.00
2023-03-26T07:46:33.920Z,584.00
2023-03-26T07:47:34.670Z,584.00
2023-03-26T07:48:33.923Z,584.00
2023-03-26T07:49:33.860Z,584.00
2023-03-26T07:50:33.881Z,580.00
2023-03-26T07:51:33.925Z,584.00
2023-03-26T07:52:33.860Z,584.00
2023-03-26T07:53:33.832Z,584.00
2023-03-26T07:54:33.812Z,580.00
2023-03-26T07:55:33.836Z,568.00
2023-03-26T07:56:33.844Z,560.00
2023-03-26T07:57:33.815Z,552.00
2023-03-26T07:58:33.878Z,556.00
2023-03-26T07:59:33.760Z,572.00
2023-03-26T08:00:33.782Z,592.00
2023-03-26T08:01:33.743Z,608.00
2023-03-26T08:02:33.745Z,604.00
2023-03-26T08:03:33.806Z,600.00
2023-03-26T08:04:33.822Z,596.00
2023-03-26T08:05:33.687Z,592.00
2023-03-26T08:06:33.710Z,592.00
2023-03-26T08:07:33.663Z,584.00
2023-03-26T08:08:33.671Z,580.00
2023-03-26T08:09:33.668Z,568.00
2023-03-26T08:10:33.643Z,560.00
2023-03-26T08:11:33.746Z,556.00
2023-03-26T08:12:33.688Z,556.00
2023-03-26T08:13:33.598Z,556.00
2023-03-26T08:14:33.581Z,560.00
2023-03-26T08:15:33.633Z,556.00
2023-03-26T08:16:33.593Z,540.00
2023-03-26T08:17:33.579Z,524.00
2023-03-26T08:18:33.542Z,504.00
2023-03-26T08:19:33.542Z,484.00
2023-03-26T08:20:33.675Z,464.00
2023-03-26T08:21:33.534Z,448.00
2023-03-26T08:22:33.534Z,444.00
2023-03-26T08:23:33.470Z,444.00
2023-03-26T08:24:33.543Z,444.00
2023-03-26T08:25:33.752Z,448.00
2023-03-26T08:26:33.473Z,456.00
2023-03-26T08:27:33.529Z,468.00
2023-03-26T08:28:33.440Z,476.00
2023-03-26T08:29:33.421Z,492.00
2023-03-26T08:30:33.486Z,504.00
2023-03-26T08:31:33.429Z,520.00
2023-03-26T08:32:33.497Z,536.00
2023-03-26T08:33:33.371Z,552.00
2023-03-26T08:34:33.437Z,564.00
2023-03-26T08:35:33.425Z,580.00
2023-03-26T08:36:33.364Z,588.00
2023-03-26T08:37:33.337Z,600.00
2023-03-26T08:38:33.390Z,612.00
2023-03-26T08:39:33.323Z,624.00
2023-03-26T08:40:33.310Z,636.00
2023-03-26T08:41:33.297Z,644.00
2023-03-26T08:42:33.609Z,656.00
2023-03-26T08:43:33.312Z,660.00
2023-03-26T08:44:33.273Z,664.00
2023-03-26T08:45:33.237Z,664.00
2023-03-26T08:46:33.267Z,664.00
2023-03-26T08:47:33.308Z,660.00
2023-03-26T08:48:33.208Z,660.00
2023-03-26T08:49:33.191Z,660.00
2023-03-26T08:50:33.198Z,664.00
2023-03-26T08:51:33.177Z,668.00
2023-03-26T08:52:33.175Z,676.00
2023-03-26T08:53:33.134Z,692.00
2023-03-26T08:54:33.157Z,708.00
2023-03-26T08:55:33.184Z,732.00
2023-03-26T08:56:33.168Z,768.00
2023-03-26T08:57:33.129Z,800.00
2023-03-26T08:58:33.091Z,832.00
2023-03-26T08:59:33.171Z,864.00
2023-03-26T09:00:33.055Z,888.00
2023-03-26T09:01:33.071Z,904.00
2023-03-26T09:02:33.169Z,912.00
2023-03-26T09:03:33.031Z,916.00
2023-03-26T09:04:33.016Z,908.00
2023-03-26T09:05:33.029Z,904.00
2023-03-26T09:06:33.263Z,896.00
2023-03-26T09:07:32.997Z,888.00
2023-03-26T09:08:32.979Z,884.00
2023-03-26T09:09:32.986Z,876.00
2023-03-26T09:10:32.995Z,872.00
2023-03-26T09:11:32.944Z,860.00
2023-03-26T09:12:32.961Z,852.00
2023-03-26T09:13:32.911Z,844.00
2023-03-26T09:14:32.927Z,836.00
2023-03-26T09:15:32.894Z,832.00
2023-03-26T09:16:32.982Z,832.00
2023-03-26T09:17:32.888Z,828.00
2023-03-26T09:18:32.914Z,836.00
2023-03-26T09:19:32.837Z,844.00
2023-03-26T09:20:32.840Z,856.00
2023-03-26T09:21:32.981Z,860.00
2023-03-26T09:22:32.883Z,872.00
2023-03-26T09:23:32.816Z,888.00
2023-03-26T09:24:32.805Z,904.00
2023-03-26T09:25:32.845Z,924.00
2023-03-26T09:26:32.775Z,948.00
2023-03-26T09:27:32.768Z,980.00
2023-03-26T09:28:32.793Z,1008.00
2023-03-26T09:29:33.258Z,1032.00
2023-03-26T09:30:32.792Z,1056.00
2023-03-26T09:31:33.002Z,1076.00
2023-03-26T09:32:32.761Z,1092.00
2023-03-26T09:33:32.689Z,1108.00
2023-03-26T09:34:32.743Z,1124.00
2023-03-26T09:35:32.784Z,1140.00
2023-03-26T09:36:32.680Z,1152.00
2023-03-26T09:37:32.645Z,1164.00
2023-03-26T09:38:32.680Z,1180.00
2023-03-26T09:39:32.642Z,1196.00
2023-03-26T09:40:32.632Z,1208.00
2023-03-26T09:41:32.592Z,1220.00
2023-03-26T09:42:32.606Z,1236.00
2023-03-26T09:43:32.582Z,1252.00
2023-03-26T09:44:32.622Z,1260.00
2023-03-26T09:45:32.714Z,1256.00
2023-03-26T09:46:32.566Z,1252.00
2023-03-26T09:47:32.591Z,1240.00
2023-03-26T09:48:32.525Z,1228.00
2023-03-26T09:49:32.528Z,1212.00
2023-03-26T09:50:32.554Z,1192.00
2023-03-26T09:51:32.518Z,1164.00
2023-03-26T09:52:32.484Z,1132.00
2023-03-26T09:53:32.476Z,1092.00
2023-03-26T09:54:32.468Z,1052.00
2023-03-26T09:55:32.486Z,1008.00
2023-03-26T09:56:32.609Z,972.00
2023-03-26T09:57:32.499Z,944.00
2023-03-26T09:58:32.446Z,916.00
2023-03-26T09:59:32.397Z,896.00
2023-03-26T10:00:32.409Z,888.00
2023-03-26T10:01:32.429Z,880.00
2023-03-26T10:02:45.508Z,868.00
2023-03-26T10:03:33.451Z,856.00
2023-03-26T10:04:32.386Z,836.00
2023-03-26T10:05:32.385Z,820.00
2023-03-26T10:06:32.313Z,812.00
2023-03-26T10:07:32.360Z,812.00
2023-03-26T10:08:32.604Z,812.00
2023-03-26T10:09:32.373Z,808.00
2023-03-26T10:10:32.296Z,800.00
2023-03-26T10:11:32.280Z,788.00
2023-03-26T10:12:32.258Z,776.00
2023-03-26T10:13:32.324Z,764.00
2023-03-26T10:14:32.244Z,748.00
2023-03-26T10:15:32.233Z,720.00
2023-03-26T10:16:32.250Z,700.00
2023-03-26T10:17:32.254Z,696.00
2023-03-26T10:18:32.231Z,700.00
2023-03-26T10:19:32.274Z,708.00
2023-03-26T10:20:32.164Z,728.00
2023-03-26T10:21:32.180Z,768.00
2023-03-26T10:22:32.147Z,804.00
2023-03-26T10:23:32.149Z,840.00
2023-03-26T10:24:32.161Z,872.00
2023-03-26T10:25:32.112Z,896.00
2023-03-26T10:26:32.142Z,916.00
2023-03-26T10:27:32.100Z,956.00
2023-03-26T10:28:32.063Z,996.00
2023-03-26T10:29:32.067Z,1028.00
2023-03-26T10:30:32.118Z,1048.00
2023-03-26T10:31:32.068Z,1068.00
2023-03-26T10:32:32.098Z,1084.00
2023-03-26T10:33:32.021Z,1092.00
2023-03-26T10:34:32.009Z,1084.00
2023-03-26T10:35:32.073Z,1064.00
2023-03-26T10:36:32.045Z,1036.00
2023-03-26T10:37:31.970Z,992.00
2023-03-26T10:38:31.963Z,888.00
2023-03-26T10:39:37.090Z,796.00
2023-03-26T10:40:32.940Z,732.00
2023-03-26T10:41:31.998Z,684.00
2023-03-26T10:42:31.899Z,648.00
2023-03-26T10:43:31.946Z,624.00
2023-03-26T10:44:31.873Z,620.00
2023-03-26T10:45:31.879Z,628.00
2023-03-26T10:46:31.940Z,660.00
2023-03-26T10:47:31.879Z,688.00
2023-03-26T10:48:31.849Z,724.00
2023-03-26T10:49:31.845Z,756.00
2023-03-26T10:50:31.823Z,796.00
2023-03-26T10:51:31.833Z,828.00
2023-03-26T10:52:31.811Z,864.00
2023-03-26T10:53:31.809Z,904.00
2023-03-26T10:54:31.773Z,936.00
2023-03-26T10:55:31.760Z,964.00
2023-03-26T10:56:31.750Z,988.00
2023-03-26T10:57:31.795Z,1008.00
2023-03-26T10:58:48.219Z,1020.00
2023-03-26T10:59:32.710Z,1028.00
2023-03-26T11:00:31.979Z,1040.00
2023-03-26T11:01:31.808Z,1052.00
2023-03-26T11:02:31.690Z,1060.00
2023-03-26T11:03:31.675Z,1044.00
2023-03-26T11:04:31.666Z,1020.00
2023-03-26T11:05:31.705Z,1000.00
2023-03-26T11:06:31.682Z,980.00
2023-03-26T11:07:31.642Z,980.00
2023-03-26T11:08:32.272Z,984.00
2023-03-26T11:09:31.599Z,984.00
2023-03-26T11:10:31.598Z,1004.00
2023-03-26T11:11:31.619Z,1044.00
2023-03-26T11:12:31.578Z,1084.00
2023-03-26T11:13:31.586Z,1112.00
2023-03-26T11:14:35.010Z,1140.00
2023-03-26T11:15:31.620Z,1164.00
2023-03-26T11:16:31.571Z,1176.00
2023-03-26T11:17:40.646Z,1192.00
2023-03-26T11:18:32.513Z,1196.00
2023-03-26T11:19:31.513Z,1196.00
2023-03-26T11:20:31.485Z,1184.00
2023-03-26T11:21:31.502Z,1176.00
2023-03-26T11:22:31.465Z,1164.00
2023-03-26T11:23:31.487Z,1156.00
2023-03-26T11:24:31.463Z,1152.00
2023-03-26T11:25:31.455Z,1156.00
2023-03-26T11:26:31.480Z,1152.00
2023-03-26T11:27:31.441Z,1156.00
2023-03-26T11:28:31.420Z,1156.00
2023-03-26T11:29:33.436Z,1156.00
2023-03-26T11:30:31.416Z,1160.00
2023-03-26T11:31:31.405Z,1160.00
2023-03-26T11:32:31.364Z,1160.00
2023-03-26T11:33:32.797Z,1164.00
2023-03-26T11:34:31.379Z,1168.00
2023-03-26T11:35:40.792Z,1180.00
2023-03-26T11:36:32.306Z,1188.00
2023-03-26T11:37:31.313Z,1196.00
2023-03-26T11:38:31.296Z,1208.00
2023-03-26T11:39:31.277Z,1220.00
2023-03-26T11:40:31.285Z,1240.00
2023-03-26T11:41:31.259Z,1252.00
2023-03-26T11:42:31.239Z,1264.00
2023-03-26T11:43:31.241Z,1272.00
2023-03-26T11:44:31.219Z,1284.00
2023-03-26T11:45:31.259Z,1284.00
2023-03-26T11:46:33.247Z,1292.00
2023-03-26T11:47:31.247Z,1292.00
2023-03-26T11:48:31.207Z,1300.00
2023-03-26T11:49:31.159Z,1300.00
2023-03-26T11:50:31.149Z,1304.00
2023-03-26T11:51:31.155Z,1304.00
2023-03-26T11:52:31.154Z,1304.00
2023-03-26T11:53:31.150Z,1308.00
2023-03-26T11:54:31.136Z,1308.00
2023-03-26T11:55:31.134Z,1316.00
2023-03-26T11:56:31.271Z,1316.00
2023-03-26T11:57:31.103Z,1316.00
2023-03-26T11:58:31.099Z,1320.00
2023-03-26T11:59:31.861Z,1332.00
2023-03-26T12:00:31.061Z,1340.00
2023-03-26T12:01:31.040Z,1344.00
2023-03-26T12:02:31.106Z,1344.00
2023-03-26T12:03:30.993Z,1344.00
2023-03-26T12:04:31.979Z,1344.00
2023-03-26T12:05:30.988Z,1344.00
2023-03-26T12:06:30.954Z,1336.00
2023-03-26T12:07:30.988Z,1332.00
2023-03-26T12:08:30.952Z,1324.00
2023-03-26T12:09:30.945Z,1320.00
2023-03-26T12:10:30.953Z,1316.00
2023-03-26T12:11:32.130Z,1312.00
2023-03-26T12:12:30.913Z,1300.00
2023-03-26T12:13:30.880Z,1308.00
2023-03-26T12:14:30.886Z,1300.00
2023-03-26T12:15:30.889Z,1304.00
2023-03-26T12:16:30.925Z,1300.00
2023-03-26T12:17:31.729Z,1296.00
2023-03-26T12:18:30.849Z,1296.00
2023-03-26T12:19:30.810Z,1296.00
2023-03-26T12:20:30.829Z,1292.00
2023-03-26T12:21:30.877Z,1288.00
2023-03-26T12:22:30.808Z,1288.00
2023-03-26T12:23:30.789Z,1292.00
2023-03-26T12:24:30.753Z,1288.00
2023-03-26T12:25:31.209Z,1288.00
2023-03-26T12:26:30.740Z,1284.00
2023-03-26T12:27:30.740Z,1280.00
2023-03-26T12:28:30.714Z,1276.00
2023-03-26T12:29:30.701Z,1280.00
2023-03-26T12:30:30.726Z,1292.00
2023-03-26T12:31:30.675Z,1296.00
2023-03-26T12:32:42.961Z,1296.00
2023-03-26T12:33:31.706Z,1296.00
2023-03-26T12:34:30.712Z,1292.00
2023-03-26T12:35:30.673Z,1288.00
2023-03-26T12:36:30.624Z,1284.00
2023-03-26T12:37:30.609Z,1292.00
2023-03-26T12:38:30.633Z,1300.00
2023-03-26T12:40:10.336Z,1304.00
2023-03-26T12:40:31.579Z,1312.00
2023-03-26T12:44:42.054Z,1316.00
2023-03-26T12:44:46.258Z,1328.00
2023-03-26T12:44:52.618Z,1348.00
2023-03-26T12:44:55.535Z,1356.00